METAR és
SPECI
METAR LHBP 011100Z 10008KT 9999 -SHRA FEW005 SCT025CB BKN050 20/17 Q1010 TEMPO 8000 SHRA TSRA FEW020CB BKN030=
METAR LHBP 011030Z 07008KT 040V110 9999 SCT040 BKN080 21/17 Q1009 TEMPO 8000 SHRA FEW020CB BKN030=
METAR LHBP 011000Z 08010KT 040V100 9999 FEW038 BKN080 20/17 Q1009 NOSIG=
METAR LHBP 010930Z 07009KT 9999 FEW038 BKN080 19/17 Q1009 NOSIG=
METAR LHBP 010900Z 06004KT 350V090 9999 SCT045 BKN086 18/18 Q1009 NOSIG=
METAR LHBP 010830Z VRB03KT 9999 -RA SCT043 BKN054 18/17 Q1010 NOSIG=
TAF
TAF LHBP 011100Z 0112/0212 07009KT 9999 SCT040 BKN080 TEMPO 0112/0118 VRB14KT 6000 SHRA TSRA SCT010 FEW020CB BKN030 BECMG 0117/0120 04005KT BECMG 0122/0201 34008KT BECMG 0208/0211 CAVOK=
GAMET
FAHU41 LHBM 011100
LHCC GAMET VALID 011200/011800 LHBP-
BUDAPEST FIR BLW FL100
SECN 1
SIGWX: ISOL TS E OF 01930
ISOL EMBD TS W OF E01930
SIG CLD: ISOL TCU CB 2000-4000/XXX FT AGL E OF E01930
EMBD CB 500-1500/XXX FT AGL W OF E01930
TURB: MOD SFC/1500 FT AMSL W OF E01800
SIGMETS APPLICABLE: 05 AT TIME OF ISSUE=
OMSZ: 2014. szeptember 1. 13:02 (11:02  UTC)
[FAHU41]
AIRMET
Nincs érvényes távirat! 
WAHU41 LHBM 311610
LHCC AIRMET 01 VALID 311610/311800 LHBP-
LHCC BUDAPEST FIR ISOL TS OBS AT 1610Z E OF E01900 TOP FL240
MOV NE NC=
SIGMET
Nincs érvényes távirat! 
WSHU31 LHBM 010915
LHCC SIGMET 05 VALID 010915/011100 LHBP-
LHCC BUDAPEST FIR EMBD TS OBS S OF N4700 AND N OF N4620
AND E OF E01900 AND W OF E01955 TOP FL300-340 MOV N WKN=
SIGMET
Vulkáni hamufelhő
Not valid product! 
WVHU31 LHBM 271515 CCA
LHCC SIGMET 03 VALID 271515/271800 LHBP-
LHCC BUDAPEST FIR EXERCISE VOLCEX12/01
CNL VA SIGMET 02 271200/271800
EXERCISE EXERCISE EXERCISE VOLCEX12/01=